createdAt,value
2022-12-03T00:02:40.119Z,12.73
2022-12-03T00:08:00.020Z,15.70
2022-12-03T00:13:20.196Z,11.50
2022-12-03T00:18:40.359Z,12.60
2022-12-03T00:24:00.570Z,12.73
2022-12-03T00:29:20.659Z,11.53
2022-12-03T00:34:40.969Z,11.97
2022-12-03T00:40:01.269Z,11.53
2022-12-03T00:45:21.563Z,12.90
2022-12-03T00:50:41.743Z,11.13
2022-12-03T00:56:01.879Z,12.97
2022-12-03T01:01:22.226Z,12.53
2022-12-03T01:06:42.413Z,11.87
2022-12-03T01:12:02.364Z,11.67
2022-12-03T01:17:22.488Z,10.93
2022-12-03T01:22:42.670Z,11.87
2022-12-03T01:28:02.886Z,11.20
2022-12-03T01:33:22.920Z,10.60
2022-12-03T01:38:43.129Z,11.00
2022-12-03T01:44:03.211Z,12.87
2022-12-03T01:49:23.318Z,10.40
2022-12-03T01:54:43.367Z,10.57
2022-12-03T02:00:03.581Z,10.03
2022-12-03T02:05:23.809Z,10.00
2022-12-03T02:10:43.976Z,11.53
2022-12-03T02:16:04.196Z,11.90
2022-12-03T02:21:24.286Z,9.33
2022-12-03T02:26:44.502Z,10.30
2022-12-03T02:32:04.639Z,9.33
2022-12-03T02:37:24.802Z,9.67
2022-12-03T02:42:44.868Z,9.70
2022-12-03T02:48:05.016Z,9.33
2022-12-03T02:53:25.086Z,9.57
2022-12-03T02:58:45.259Z,9.13
2022-12-03T03:04:05.301Z,8.97
2022-12-03T03:09:25.441Z,7.90
2022-12-03T03:14:45.466Z,9.23
2022-12-03T03:20:05.580Z,8.73
2022-12-03T03:25:25.727Z,8.27
2022-12-03T03:30:46.013Z,9.30
2022-12-03T03:36:05.979Z,8.40
2022-12-03T03:41:26.029Z,8.10
2022-12-03T03:46:46.007Z,9.00
2022-12-03T03:52:06.183Z,8.27
2022-12-03T03:57:26.225Z,7.67
2022-12-03T04:02:46.361Z,7.50
2022-12-03T04:08:06.624Z,8.67
2022-12-03T04:13:26.722Z,7.83
2022-12-03T04:18:46.784Z,7.93
2022-12-03T04:24:07.013Z,8.10
2022-12-03T04:29:27.124Z,8.43
2022-12-03T04:34:47.378Z,8.67
2022-12-03T04:40:07.487Z,7.70
2022-12-03T04:45:27.770Z,8.37
2022-12-03T04:50:47.985Z,8.83
2022-12-03T04:56:08.262Z,8.10
2022-12-03T05:01:28.332Z,8.17
2022-12-03T05:06:48.415Z,7.67
2022-12-03T05:12:08.505Z,7.23
2022-12-03T05:17:28.675Z,8.70
2022-12-03T05:22:48.809Z,6.73
2022-12-03T05:28:08.796Z,7.20
2022-12-03T05:33:28.809Z,7.70
2022-12-03T05:38:49.049Z,7.87
2022-12-03T05:44:09.169Z,7.30
2022-12-03T05:49:29.334Z,7.57
2022-12-03T05:54:49.410Z,8.03
2022-12-03T06:00:09.622Z,7.87
2022-12-03T06:05:29.697Z,7.83
2022-12-03T06:10:49.921Z,7.93
2022-12-03T06:16:10.020Z,8.23
2022-12-03T06:21:30.226Z,7.33
2022-12-03T06:26:50.398Z,7.93
2022-12-03T06:32:10.570Z,8.13
2022-12-03T06:37:30.702Z,8.07
2022-12-03T06:42:50.879Z,7.50
2022-12-03T06:48:10.972Z,7.30
2022-12-03T06:53:31.149Z,7.30
2022-12-03T06:58:51.306Z,8.00
2022-12-03T07:04:11.395Z,7.70
2022-12-03T07:09:31.579Z,7.57
2022-12-03T07:14:52.145Z,7.60
2022-12-03T07:20:12.286Z,7.03
2022-12-03T07:25:32.319Z,8.17
2022-12-03T07:30:52.594Z,8.07
2022-12-03T07:36:12.605Z,7.20
2022-12-03T07:41:32.901Z,7.40
2022-12-03T07:46:53.118Z,7.57
2022-12-03T07:52:13.205Z,7.60
2022-12-03T07:57:33.258Z,8.77
2022-12-03T08:02:53.389Z,7.80
2022-12-03T08:08:13.660Z,8.20
2022-12-03T08:13:33.693Z,7.63
2022-12-03T08:18:53.745Z,6.77
2022-12-03T08:24:13.891Z,8.23
2022-12-03T08:29:34.056Z,7.47
2022-12-03T08:34:54.393Z,7.70
2022-12-03T08:40:14.927Z,7.17
2022-12-03T08:45:35.098Z,8.13
2022-12-03T08:50:55.160Z,7.33
2022-12-03T08:56:15.399Z,6.87
2022-12-03T09:01:35.476Z,8.13
2022-12-03T09:06:55.552Z,7.83
2022-12-03T09:12:15.668Z,8.30
2022-12-03T09:17:35.837Z,7.90
2022-12-03T09:22:55.944Z,7.63
2022-12-03T09:28:16.182Z,7.13
2022-12-03T09:33:36.273Z,7.53
2022-12-03T09:38:56.384Z,7.63
2022-12-03T09:44:18.114Z,6.73
2022-12-03T09:49:38.202Z,8.67
2022-12-03T09:54:58.629Z,7.03
2022-12-03T10:00:18.985Z,8.10
2022-12-03T10:05:42.523Z,7.40
2022-12-03T10:11:05.114Z,7.23
2022-12-03T10:16:25.383Z,8.07
2022-12-03T10:21:45.357Z,8.40
2022-12-03T10:27:05.575Z,7.10
2022-12-03T10:32:25.642Z,7.50
2022-12-03T10:37:45.838Z,8.17
2022-12-03T10:43:06.011Z,8.07
2022-12-03T10:48:26.235Z,7.67
2022-12-03T10:53:46.353Z,9.70
2022-12-03T10:59:06.566Z,8.33
2022-12-03T11:04:26.535Z,7.50
2022-12-03T11:09:46.760Z,7.90
2022-12-03T11:15:06.918Z,7.17
2022-12-03T11:20:27.222Z,8.77
2022-12-03T11:25:47.589Z,7.40
2022-12-03T11:31:08.702Z,8.73
2022-12-03T11:36:54.163Z,6.47
2022-12-03T11:42:08.626Z,7.47
2022-12-03T11:47:28.588Z,8.00
2022-12-03T11:52:49.011Z,7.70
2022-12-03T11:58:09.087Z,8.57
2022-12-03T12:03:29.493Z,7.57
2022-12-03T12:08:50.003Z,9.00
2022-12-03T12:14:10.295Z,7.03
2022-12-03T12:19:30.315Z,8.57
2022-12-03T12:24:50.491Z,7.73
2022-12-03T12:30:10.538Z,8.07
2022-12-03T12:35:30.748Z,7.83
2022-12-03T12:40:50.735Z,7.90
2022-12-03T12:46:45.565Z,8.20
2022-12-03T12:51:51.329Z,8.00
2022-12-03T12:57:11.454Z,8.40
2022-12-03T13:02:31.662Z,7.43
2022-12-03T13:07:51.687Z,8.30
2022-12-03T13:13:11.761Z,8.00
2022-12-03T13:18:31.814Z,8.40
2022-12-03T13:23:51.982Z,7.47
2022-12-03T13:29:12.149Z,7.40
2022-12-03T13:34:32.277Z,6.80
2022-12-03T13:39:52.929Z,8.50
2022-12-03T13:45:13.154Z,6.53
2022-12-03T13:50:33.219Z,7.47
2022-12-03T13:55:53.399Z,7.43
2022-12-03T14:01:13.566Z,8.20
2022-12-03T14:06:33.603Z,6.50
2022-12-03T14:11:53.786Z,6.10
2022-12-03T14:17:13.951Z,7.07
2022-12-03T14:22:33.951Z,6.40
2022-12-03T14:27:54.086Z,7.20
2022-12-03T14:33:14.258Z,7.43
2022-12-03T14:38:34.283Z,7.30
2022-12-03T14:43:54.431Z,6.83
2022-12-03T14:49:14.559Z,7.17
2022-12-03T14:54:34.760Z,7.10
2022-12-03T14:59:55.084Z,8.30
2022-12-03T15:05:15.042Z,8.30
2022-12-03T15:10:35.258Z,6.77
2022-12-03T15:15:55.322Z,8.90
2022-12-03T15:21:15.392Z,7.67
2022-12-03T15:26:35.802Z,8.50
2022-12-03T15:31:56.015Z,7.90
2022-12-03T15:37:16.102Z,8.90
2022-12-03T15:42:36.137Z,7.60
2022-12-03T15:47:56.372Z,8.07
2022-12-03T15:53:16.578Z,7.67
2022-12-03T15:58:36.694Z,9.03
2022-12-03T16:03:56.818Z,7.90
2022-12-03T16:09:31.978Z,6.97
2022-12-03T16:14:51.735Z,7.37
2022-12-03T16:20:12.001Z,6.80
2022-12-03T16:25:32.046Z,6.43
2022-12-03T16:30:52.313Z,7.07
2022-12-03T16:36:12.189Z,6.97
2022-12-03T16:41:32.347Z,8.83
2022-12-03T16:46:52.611Z,7.20
2022-12-03T16:52:12.922Z,9.30
2022-12-03T16:57:34.055Z,6.90
2022-12-03T17:02:54.388Z,7.20
2022-12-03T17:08:14.744Z,7.03
2022-12-03T17:13:34.731Z,7.20
2022-12-03T17:18:54.808Z,9.77
2022-12-03T17:24:15.005Z,12.57
2022-12-03T17:29:35.042Z,18.80
2022-12-03T17:34:56.399Z,9.10
2022-12-03T17:40:16.487Z,10.67
2022-12-03T17:45:36.801Z,11.67
2022-12-03T17:50:57.020Z,11.27
2022-12-03T17:56:17.233Z,11.83
2022-12-03T18:01:37.387Z,12.17
2022-12-03T18:07:00.864Z,9.90
2022-12-03T18:12:22.570Z,12.57
2022-12-03T18:17:42.766Z,12.67
2022-12-03T18:23:06.069Z,10.83
2022-12-03T18:28:26.206Z,12.03
2022-12-03T18:33:46.341Z,10.70
2022-12-03T18:39:06.471Z,10.73
2022-12-03T18:44:26.650Z,11.00
2022-12-03T18:49:46.768Z,11.50
2022-12-03T18:55:06.999Z,11.97
2022-12-03T19:00:27.449Z,11.97
2022-12-03T19:05:47.802Z,10.00
2022-12-03T19:11:08.348Z,10.33
2022-12-03T19:16:28.656Z,10.30
2022-12-03T19:21:49.088Z,11.67
2022-12-03T19:27:09.801Z,11.40
2022-12-03T19:32:30.112Z,8.97
2022-12-03T19:37:50.382Z,10.10
2022-12-03T19:43:10.538Z,9.47
2022-12-03T19:48:30.846Z,9.33
2022-12-03T19:53:50.995Z,9.50
2022-12-03T19:59:11.217Z,8.07
2022-12-03T20:04:31.345Z,7.90
2022-12-03T20:09:51.692Z,8.13
2022-12-03T20:15:11.848Z,8.43
2022-12-03T20:20:32.093Z,8.33
2022-12-03T20:25:52.503Z,9.50
2022-12-03T20:31:12.938Z,8.63
2022-12-03T20:36:32.893Z,9.20
2022-12-03T20:41:53.149Z,9.43
2022-12-03T20:47:13.404Z,7.60
2022-12-03T21:03:21.917Z,8.70
2022-12-03T21:08:42.763Z,9.23
2022-12-03T21:14:03.098Z,8.30
2022-12-03T21:19:23.335Z,8.20
2022-12-03T21:24:43.621Z,7.27
2022-12-03T21:30:03.868Z,7.23
2022-12-03T21:35:24.048Z,9.67
2022-12-03T21:40:44.267Z,7.50
2022-12-03T21:46:04.606Z,7.87
2022-12-03T21:51:44.485Z,9.63
2022-12-03T21:57:04.572Z,8.37
2022-12-03T22:02:24.790Z,7.57
2022-12-03T22:07:46.865Z,9.27
2022-12-03T22:13:07.006Z,8.20
2022-12-03T22:18:27.098Z,8.40
2022-12-03T22:23:47.442Z,7.53
2022-12-03T22:29:07.490Z,7.90
2022-12-03T22:34:27.746Z,8.20
2022-12-03T22:39:47.857Z,8.00
2022-12-03T22:45:07.944Z,7.57
2022-12-03T22:50:28.015Z,7.17
2022-12-03T22:55:48.059Z,6.57
2022-12-03T23:01:08.173Z,7.03
2022-12-03T23:06:28.296Z,6.70
2022-12-03T23:11:48.378Z,7.40
2022-12-03T23:17:08.642Z,6.57
2022-12-03T23:22:28.754Z,7.10
2022-12-03T23:27:48.994Z,9.43
2022-12-03T23:33:09.132Z,11.87
2022-12-03T23:38:29.302Z,12.40
2022-12-03T23:43:49.608Z,11.43
2022-12-03T23:49:09.852Z,11.50
2022-12-03T23:54:32.160Z,11.30
2022-12-03T23:59:52.493Z,12.37
